sensor_id;sensor_type;location;lat;lon;timestamp;pressure;altitude;pressure_sealevel;temperature;humidity
12054;BME280;5638;50.860;4.698;2022-10-18T00:02:01;102099.53;;;16.19;nan
12054;BME280;5638;50.860;4.698;2022-10-18T00:04:27;102097.78;;;16.19;nan
12054;BME280;5638;50.860;4.698;2022-10-18T00:06:53;102096.97;;;16.16;nan
12054;BME280;5638;50.860;4.698;2022-10-18T00:09:18;102093.50;;;16.15;nan
12054;BME280;5638;50.860;4.698;2022-10-18T00:11:44;102105.56;;;16.23;nan
12054;BME280;5638;50.860;4.698;2022-10-18T00:14:10;102097.75;;;16.21;nan
12054;BME280;5638;50.860;4.698;2022-10-18T00:16:36;102097.75;;;16.21;nan
12054;BME280;5638;50.860;4.698;2022-10-18T00:19:02;102099.50;;;16.21;nan
12054;BME280;5638;50.860;4.698;2022-10-18T00:21:28;102096.94;;;16.19;nan
12054;BME280;5638;50.860;4.698;2022-10-18T00:23:54;102097.88;;;16.15;nan
12054;BME280;5638;50.860;4.698;2022-10-18T00:26:25;102096.94;;;16.19;nan
12054;BME280;5638;50.860;4.698;2022-10-18T00:28:58;102090.00;;;16.18;nan
12054;BME280;5638;50.860;4.698;2022-10-18T00:31:31;102100.34;;;16.21;nan
12054;BME280;5638;50.860;4.698;2022-10-18T00:34:14;102100.34;;;16.21;nan
12054;BME280;5638;50.860;4.698;2022-10-18T00:36:42;102095.13;;;16.21;nan
12054;BME280;5638;50.860;4.698;2022-10-18T00:39:14;102096.88;;;16.21;nan
12054;BME280;5638;50.860;4.698;2022-10-18T00:41:40;102093.44;;;16.18;nan
12054;BME280;5638;50.860;4.698;2022-10-18T00:46:48;102100.44;;;16.18;nan
12054;BME280;5638;50.860;4.698;2022-10-18T00:49:30;102107.38;;;16.19;nan
12054;BME280;5638;50.860;4.698;2022-10-18T00:52:08;102116.09;;;16.18;nan
12054;BME280;5638;50.860;4.698;2022-10-18T00:54:39;102110.00;;;16.17;nan
12054;BME280;5638;50.860;4.698;2022-10-18T00:57:07;102116.91;;;16.20;nan
12054;BME280;5638;50.860;4.698;2022-10-18T00:59:34;102121.31;;;16.16;nan
12054;BME280;5638;50.860;4.698;2022-10-18T01:02:01;102122.09;;;16.22;nan
12054;BME280;5638;50.860;4.698;2022-10-18T01:04:27;102118.66;;;16.19;nan
12054;BME280;5638;50.860;4.698;2022-10-18T01:07:17;102112.59;;;16.17;nan
12054;BME280;5638;50.860;4.698;2022-10-18T01:10:29;102100.56;;;16.09;nan
12054;BME280;5638;50.860;4.698;2022-10-18T01:13:28;102121.31;;;16.18;nan
12054;BME280;5638;50.860;4.698;2022-10-18T01:16:38;102122.13;;;16.20;nan
12054;BME280;5638;50.860;4.698;2022-10-18T01:22:16;102103.09;;;16.15;nan
12054;BME280;5638;50.860;4.698;2022-10-18T01:27:45;102121.31;;;16.16;nan
12054;BME280;5638;50.860;4.698;2022-10-18T01:36:01;102119.66;;;16.14;nan
12054;BME280;5638;50.860;4.698;2022-10-18T01:38:32;102106.59;;;16.12;nan
12054;BME280;5638;50.860;4.698;2022-10-18T01:41:01;102113.53;;;16.15;nan
12054;BME280;5638;50.860;4.698;2022-10-18T01:43:29;102110.91;;;16.15;nan
12054;BME280;5638;50.860;4.698;2022-10-18T01:45:58;102119.66;;;16.14;nan
12054;BME280;5638;50.860;4.698;2022-10-18T01:48:26;102120.47;;;16.16;nan
12054;BME280;5638;50.860;4.698;2022-10-18T01:50:53;102120.44;;;16.17;nan
12054;BME280;5638;50.860;4.698;2022-10-18T01:53:25;102111.75;;;16.17;nan
12054;BME280;5638;50.860;4.698;2022-10-18T02:02:05;102119.63;;;16.15;nan
12054;BME280;5638;50.860;4.698;2022-10-18T02:04:47;102124.88;;;16.14;nan
12054;BME280;5638;50.860;4.698;2022-10-18T02:07:38;102129.19;;;16.15;nan
12054;BME280;5638;50.860;4.698;2022-10-18T02:10:26;102127.44;;;16.15;nan
12054;BME280;5638;50.860;4.698;2022-10-18T02:12:56;102115.38;;;16.10;nan
12054;BME280;5638;50.860;4.698;2022-10-18T02:15:45;102123.13;;;16.13;nan
12054;BME280;5638;50.860;4.698;2022-10-18T02:18:19;102120.50;;;16.13;nan
12054;BME280;5638;50.860;4.698;2022-10-18T02:20:47;102119.69;;;16.11;nan
12054;BME280;5638;50.860;4.698;2022-10-18T02:23:15;102123.13;;;16.13;nan
12054;BME280;5638;50.860;4.698;2022-10-18T02:25:45;102103.22;;;16.07;nan
12054;BME280;5638;50.860;4.698;2022-10-18T02:28:11;102109.34;;;16.06;nan
12054;BME280;5638;50.860;4.698;2022-10-18T02:30:50;102104.94;;;16.08;nan
12054;BME280;5638;50.860;4.698;2022-10-18T02:33:29;102108.47;;;16.04;nan
12054;BME280;5638;50.860;4.698;2022-10-18T02:36:07;102112.81;;;16.07;nan
12054;BME280;5638;50.860;4.698;2022-10-18T02:38:39;102098.16;;;15.98;nan
12054;BME280;5638;50.860;4.698;2022-10-18T02:41:06;102107.59;;;16.07;nan
12054;BME280;5638;50.860;4.698;2022-10-18T02:43:32;102104.19;;;16.02;nan
12054;BME280;5638;50.860;4.698;2022-10-18T02:46:00;102113.69;;;16.04;nan
12054;BME280;5638;50.860;4.698;2022-10-18T02:48:26;102109.34;;;16.05;nan
12054;BME280;5638;50.860;4.698;2022-10-18T02:50:52;102104.19;;;16.00;nan
12054;BME280;5638;50.860;4.698;2022-10-18T02:53:18;102114.63;;;16.02;nan
12054;BME280;5638;50.860;4.698;2022-10-18T02:55:44;102113.75;;;16.03;nan
12054;BME280;5638;50.860;4.698;2022-10-18T02:58:09;102132.78;;;16.08;nan
12054;BME280;5638;50.860;4.698;2022-10-18T03:00:35;102135.44;;;16.05;nan
12054;BME280;5638;50.860;4.698;2022-10-18T03:03:01;102130.31;;;16.00;nan
12054;BME280;5638;50.860;4.698;2022-10-18T03:05:27;102133.78;;;16.01;nan
12054;BME280;5638;50.860;4.698;2022-10-18T03:07:55;102119.97;;;15.94;nan
12054;BME280;5638;50.860;4.698;2022-10-18T03:10:22;102134.66;;;16.00;nan
12054;BME280;5638;50.860;4.698;2022-10-18T03:12:48;102119.97;;;15.92;nan
12054;BME280;5638;50.860;4.698;2022-10-18T03:15:13;102132.06;;;16.00;nan
12054;BME280;5638;50.860;4.698;2022-10-18T03:17:39;102132.91;;;16.02;nan
12054;BME280;5638;50.860;4.698;2022-10-18T03:20:06;102136.34;;;16.05;nan
12054;BME280;5638;50.860;4.698;2022-10-18T03:22:31;102134.63;;;16.03;nan
12054;BME280;5638;50.860;4.698;2022-10-18T03:24:57;102123.41;;;15.98;nan
12054;BME280;5638;50.860;4.698;2022-10-18T03:27:23;102125.97;;;15.99;nan
12054;BME280;5638;50.860;4.698;2022-10-18T03:29:49;102143.28;;;16.05;nan
12054;BME280;5638;50.860;4.698;2022-10-18T03:32:15;102143.28;;;16.06;nan
12054;BME280;5638;50.860;4.698;2022-10-18T03:34:40;102132.84;;;16.05;nan
12054;BME280;5638;50.860;4.698;2022-10-18T03:37:06;102141.56;;;16.05;nan
12054;BME280;5638;50.860;4.698;2022-10-18T03:39:32;102143.34;;;16.02;nan
12054;BME280;5638;50.860;4.698;2022-10-18T03:41:58;102138.13;;;16.02;nan
12054;BME280;5638;50.860;4.698;2022-10-18T03:44:24;102145.84;;;16.08;nan
12054;BME280;5638;50.860;4.698;2022-10-18T03:46:49;102137.22;;;16.03;nan
12054;BME280;5638;50.860;4.698;2022-10-18T03:49:15;102145.09;;;16.01;nan
12054;BME280;5638;50.860;4.698;2022-10-18T03:51:41;102150.25;;;16.06;nan
12054;BME280;5638;50.860;4.698;2022-10-18T03:54:07;102151.97;;;16.07;nan
12054;BME280;5638;50.860;4.698;2022-10-18T03:56:33;102144.22;;;16.01;nan
12054;BME280;5638;50.860;4.698;2022-10-18T03:58:58;102146.81;;;16.02;nan
12054;BME280;5638;50.860;4.698;2022-10-18T04:01:24;102140.63;;;16.08;nan
12054;BME280;5638;50.860;4.698;2022-10-18T04:03:50;102142.34;;;16.09;nan
12054;BME280;5638;50.860;4.698;2022-10-18T04:06:16;102155.38;;;16.09;nan
12054;BME280;5638;50.860;4.698;2022-10-18T04:08:42;102163.19;;;16.12;nan
12054;BME280;5638;50.860;4.698;2022-10-18T04:11:08;102164.97;;;16.10;nan
12054;BME280;5638;50.860;4.698;2022-10-18T04:13:35;102166.69;;;16.11;nan
12054;BME280;5638;50.860;4.698;2022-10-18T04:16:01;102164.06;;;16.11;nan
12054;BME280;5638;50.860;4.698;2022-10-18T04:18:27;102167.56;;;16.11;nan
12054;BME280;5638;50.860;4.698;2022-10-18T04:20:53;102170.16;;;16.11;nan
12054;BME280;5638;50.860;4.698;2022-10-18T04:23:19;102171.09;;;16.07;nan
12054;BME280;5638;50.860;4.698;2022-10-18T04:25:45;102165.00;;;16.07;nan
12054;BME280;5638;50.860;4.698;2022-10-18T04:28:11;102157.19;;;16.07;nan
12054;BME280;5638;50.860;4.698;2022-10-18T04:30:36;102151.19;;;16.02;nan
12054;BME280;5638;50.860;4.698;2022-10-18T04:33:02;102151.22;;;15.99;nan
12054;BME280;5638;50.860;4.698;2022-10-18T04:35:28;102140.00;;;15.93;nan
12054;BME280;5638;50.860;4.698;2022-10-18T04:37:54;102150.38;;;15.98;nan
12054;BME280;5638;50.860;4.698;2022-10-18T04:40:20;102153.72;;;16.05;nan
12054;BME280;5638;50.860;4.698;2022-10-18T04:42:46;102166.72;;;16.08;nan
12054;BME280;5638;50.860;4.698;2022-10-18T04:45:12;102171.94;;;16.08;nan
12054;BME280;5638;50.860;4.698;2022-10-18T04:47:38;102181.50;;;16.09;nan
12054;BME280;5638;50.860;4.698;2022-10-18T04:50:04;102165.94;;;16.03;nan
12054;BME280;5638;50.860;4.698;2022-10-18T04:52:30;102172.88;;;16.05;nan
12054;BME280;5638;50.860;4.698;2022-10-18T04:54:56;102161.66;;;15.99;nan
12054;BME280;5638;50.860;4.698;2022-10-18T04:57:25;102174.59;;;16.05;nan
12054;BME280;5638;50.860;4.698;2022-10-18T04:59:51;102174.72;;;15.99;nan
12054;BME280;5638;50.860;4.698;2022-10-18T05:02:16;102179.97;;;15.97;nan
12054;BME280;5638;50.860;4.698;2022-10-18T05:04:42;102175.66;;;15.94;nan
12054;BME280;5638;50.860;4.698;2022-10-18T05:07:08;102181.66;;;16.00;nan
12054;BME280;5638;50.860;4.698;2022-10-18T05:09:34;102189.47;;;16.00;nan
12054;BME280;5638;50.860;4.698;2022-10-18T05:11:59;102183.41;;;15.99;nan
12054;BME280;5638;50.860;4.698;2022-10-18T05:14:25;102175.66;;;15.94;nan
12054;BME280;5638;50.860;4.698;2022-10-18T05:16:51;102185.16;;;15.99;nan
12054;BME280;5638;50.860;4.698;2022-10-18T05:19:17;102191.25;;;15.99;nan
12054;BME280;5638;50.860;4.698;2022-10-18T05:21:43;102186.06;;;15.96;nan
12054;BME280;5638;50.860;4.698;2022-10-18T05:24:11;102181.72;;;15.95;nan
12054;BME280;5638;50.860;4.698;2022-10-18T05:26:37;102180.00;;;15.94;nan
12054;BME280;5638;50.860;4.698;2022-10-18T05:29:03;102182.69;;;15.89;nan
12054;BME280;5638;50.860;4.698;2022-10-18T05:31:29;102190.44;;;15.94;nan
12054;BME280;5638;50.860;4.698;2022-10-18T05:33:54;102188.69;;;15.94;nan
12054;BME280;5638;50.860;4.698;2022-10-18T05:36:20;102190.44;;;15.94;nan
12054;BME280;5638;50.860;4.698;2022-10-18T05:38:46;102173.06;;;15.91;nan
12054;BME280;5638;50.860;4.698;2022-10-18T05:41:13;102175.69;;;15.91;nan
12054;BME280;5638;50.860;4.698;2022-10-18T05:43:39;102174.00;;;15.89;nan
12054;BME280;5638;50.860;4.698;2022-10-18T05:46:06;102174.88;;;15.89;nan
12054;BME280;5638;50.860;4.698;2022-10-18T05:48:33;102166.22;;;15.86;nan
12054;BME280;5638;50.860;4.698;2022-10-18T05:51:00;102161.03;;;15.84;nan
12054;BME280;5638;50.860;4.698;2022-10-18T05:53:26;102165.38;;;15.84;nan
12054;BME280;5638;50.860;4.698;2022-10-18T05:55:53;102174.00;;;15.87;nan
12054;BME280;5638;50.860;4.698;2022-10-18T05:58:19;102177.47;;;15.89;nan
12054;BME280;5638;50.860;4.698;2022-10-18T06:00:44;102174.00;;;15.87;nan
12054;BME280;5638;50.860;4.698;2022-10-18T06:03:10;102170.63;;;15.82;nan
12054;BME280;5638;50.860;4.698;2022-10-18T06:05:36;102167.13;;;15.83;nan
12054;BME280;5638;50.860;4.698;2022-10-18T06:08:02;102175.88;;;15.79;nan
12054;BME280;5638;50.860;4.698;2022-10-18T06:10:28;102178.47;;;15.79;nan
12054;BME280;5638;50.860;4.698;2022-10-18T06:12:54;102181.16;;;15.76;nan
12054;BME280;5638;50.860;4.698;2022-10-18T06:15:20;102182.91;;;15.74;nan
12054;BME280;5638;50.860;4.698;2022-10-18T06:17:46;102193.34;;;15.74;nan
12054;BME280;5638;50.860;4.698;2022-10-18T06:20:11;102198.56;;;15.74;nan
12054;BME280;5638;50.860;4.698;2022-10-18T06:22:37;102197.75;;;15.72;nan
12054;BME280;5638;50.860;4.698;2022-10-18T06:25:03;102190.81;;;15.69;nan
12054;BME280;5638;50.860;4.698;2022-10-18T06:27:29;102193.47;;;15.65;nan
12054;BME280;5638;50.860;4.698;2022-10-18T06:29:56;102201.25;;;15.69;nan
12054;BME280;5638;50.860;4.698;2022-10-18T06:32:22;102207.31;;;15.70;nan
12054;BME280;5638;50.860;4.698;2022-10-18T06:34:47;102207.34;;;15.68;nan
12054;BME280;5638;50.860;4.698;2022-10-18T06:37:13;102195.19;;;15.66;nan
12054;BME280;5638;50.860;4.698;2022-10-18T06:39:39;102200.41;;;15.66;nan
12054;BME280;5638;50.860;4.698;2022-10-18T06:42:05;102216.91;;;15.69;nan
12054;BME280;5638;50.860;4.698;2022-10-18T06:44:31;102229.88;;;15.74;nan
12054;BME280;5638;50.860;4.698;2022-10-18T06:46:57;102227.28;;;15.74;nan
12054;BME280;5638;50.860;4.698;2022-10-18T06:49:23;102213.41;;;15.72;nan
12054;BME280;5638;50.860;4.698;2022-10-18T06:51:48;102223.78;;;15.77;nan
12054;BME280;5638;50.860;4.698;2022-10-18T06:54:14;102220.31;;;15.76;nan
12054;BME280;5638;50.860;4.698;2022-10-18T06:56:40;102218.53;;;15.78;nan
12054;BME280;5638;50.860;4.698;2022-10-18T06:59:06;102234.09;;;15.83;nan
12054;BME280;5638;50.860;4.698;2022-10-18T07:01:32;102228.94;;;15.81;nan
12054;BME280;5638;50.860;4.698;2022-10-18T07:03:58;102247.13;;;15.86;nan
12054;BME280;5638;50.860;4.698;2022-10-18T07:06:24;102241.00;;;15.87;nan
12054;BME280;5638;50.860;4.698;2022-10-18T07:08:51;102241.00;;;15.88;nan
12054;BME280;5638;50.860;4.698;2022-10-18T07:11:22;102244.41;;;15.93;nan
12054;BME280;5638;50.860;4.698;2022-10-18T07:13:51;102241.88;;;15.89;nan
12054;BME280;5638;50.860;4.698;2022-10-18T07:16:18;102245.28;;;15.92;nan
12054;BME280;5638;50.860;4.698;2022-10-18T07:18:49;102244.34;;;15.97;nan
12054;BME280;5638;50.860;4.698;2022-10-18T07:21:19;102250.41;;;15.99;nan
12054;BME280;5638;50.860;4.698;2022-10-18T07:23:45;102262.53;;;16.03;nan
12054;BME280;5638;50.860;4.698;2022-10-18T07:26:19;102263.41;;;16.03;nan
12054;BME280;5638;50.860;4.698;2022-10-18T07:28:53;102270.34;;;16.06;nan
12054;BME280;5638;50.860;4.698;2022-10-18T07:31:21;102266.91;;;16.01;nan
12054;BME280;5638;50.860;4.698;2022-10-18T07:33:47;102270.38;;;16.03;nan
12054;BME280;5638;50.860;4.698;2022-10-18T07:36:13;102283.31;;;16.10;nan
12054;BME280;5638;50.860;4.698;2022-10-18T07:38:39;102286.84;;;16.08;nan
12054;BME280;5638;50.860;4.698;2022-10-18T07:41:08;102283.41;;;16.06;nan
12054;BME280;5638;50.860;4.698;2022-10-18T07:43:35;102275.59;;;16.03;nan
12054;BME280;5638;50.860;4.698;2022-10-18T07:46:03;102278.22;;;16.03;nan
12054;BME280;5638;50.860;4.698;2022-10-18T07:48:30;102274.75;;;16.01;nan
12054;BME280;5638;50.860;4.698;2022-10-18T07:51:00;102287.78;;;16.01;nan
12054;BME280;5638;50.860;4.698;2022-10-18T07:53:27;102293.84;;;16.06;nan
12054;BME280;5638;50.860;4.698;2022-10-18T07:56:03;102299.06;;;16.06;nan
12054;BME280;5638;50.860;4.698;2022-10-18T07:58:31;102302.50;;;16.09;nan
12054;BME280;5638;50.860;4.698;2022-10-18T08:01:05;102298.06;;;16.13;nan
12054;BME280;5638;50.860;4.698;2022-10-18T08:03:32;102307.47;;;16.26;nan
12054;BME280;5638;50.860;4.698;2022-10-18T08:05:58;102304.09;;;16.77;nan
12054;BME280;5638;50.860;4.698;2022-10-18T08:08:25;102308.00;;;17.02;nan
12054;BME280;5638;50.860;4.698;2022-10-18T08:10:52;102312.25;;;17.08;nan
12054;BME280;5638;50.860;4.698;2022-10-18T08:13:18;102311.56;;;16.97;nan
12054;BME280;5638;50.860;4.698;2022-10-18T08:15:45;102324.72;;;16.92;nan
12054;BME280;5638;50.860;4.698;2022-10-18T08:18:12;102330.03;;;16.87;nan
12054;BME280;5638;50.860;4.698;2022-10-18T08:20:43;102318.03;;;16.77;nan
12054;BME280;5638;50.860;4.698;2022-10-18T08:23:09;102329.00;;;16.98;nan
12054;BME280;5638;50.860;4.698;2022-10-18T08:25:35;102329.16;;;17.36;nan
12054;BME280;5638;50.860;4.698;2022-10-18T08:28:01;102328.56;;;17.67;nan
12054;BME280;5638;50.860;4.698;2022-10-18T08:30:27;102313.28;;;17.89;nan
12054;BME280;5638;50.860;4.698;2022-10-18T08:32:53;102333.72;;;18.51;nan
12054;BME280;5638;50.860;4.698;2022-10-18T08:35:18;102346.03;;;18.84;nan
12054;BME280;5638;50.860;4.698;2022-10-18T08:37:44;102326.72;;;18.88;nan
12054;BME280;5638;50.860;4.698;2022-10-18T08:40:13;102348.94;;;19.08;nan
12054;BME280;5638;50.860;4.698;2022-10-18T08:45:24;102347.06;;;19.78;nan
12054;BME280;5638;50.860;4.698;2022-10-18T08:47:51;102344.22;;;20.14;nan
12054;BME280;5638;50.860;4.698;2022-10-18T08:50:30;102339.38;;;20.58;nan
12054;BME280;5638;50.860;4.698;2022-10-18T08:54:24;102337.50;;;20.88;nan
12054;BME280;5638;50.860;4.698;2022-10-18T08:56:31;102328.59;;;21.17;nan
12054;BME280;5638;50.860;4.698;2022-10-18T08:59:02;102346.13;;;21.43;nan
12054;BME280;5638;50.860;4.698;2022-10-18T09:02:02;102346.44;;;21.59;nan
12054;BME280;5638;50.860;4.698;2022-10-18T09:04:34;102348.00;;;21.39;nan
12054;BME280;5638;50.860;4.698;2022-10-18T09:07:54;102349.56;;;21.20;nan
12054;BME280;5638;50.860;4.698;2022-10-18T09:19:48;102354.59;;;21.26;nan
12054;BME280;5638;50.860;4.698;2022-10-18T09:22:28;102359.84;;;21.26;nan
12054;BME280;5638;50.860;4.698;2022-10-18T09:25:10;102363.56;;;20.96;nan
12054;BME280;5638;50.860;4.698;2022-10-18T09:27:53;102357.56;;;20.64;nan
12054;BME280;5638;50.860;4.698;2022-10-18T09:31:04;102355.25;;;20.55;nan
12054;BME280;5638;50.860;4.698;2022-10-18T09:33:44;102356.38;;;20.46;nan
12054;BME280;5638;50.860;4.698;2022-10-18T09:36:20;102360.16;;;20.37;nan
12054;BME280;5638;50.860;4.698;2022-10-18T09:38:53;102365.31;;;20.12;nan
12054;BME280;5638;50.860;4.698;2022-10-18T09:44:50;102369.34;;;20.52;nan
12054;BME280;5638;50.860;4.698;2022-10-18T09:47:21;102371.56;;;21.18;nan
12054;BME280;5638;50.860;4.698;2022-10-18T09:50:01;102378.91;;;21.59;nan
12054;BME280;5638;50.860;4.698;2022-10-18T09:52:38;102378.97;;;21.58;nan
12054;BME280;5638;50.860;4.698;2022-10-18T09:55:16;102392.00;;;21.36;nan
12054;BME280;5638;50.860;4.698;2022-10-18T09:57:50;102392.22;;;20.77;nan
12054;BME280;5638;50.860;4.698;2022-10-18T10:00:25;102371.47;;;20.39;nan
12054;BME280;5638;50.860;4.698;2022-10-18T10:02:53;102396.06;;;20.95;nan
12054;BME280;5638;50.860;4.698;2022-10-18T10:05:19;102394.53;;;20.87;nan
12054;BME280;5638;50.860;4.698;2022-10-18T10:07:48;102391.88;;;20.87;nan
12054;BME280;5638;50.860;4.698;2022-10-18T10:10:30;102394.16;;;20.72;nan
12054;BME280;5638;50.860;4.698;2022-10-18T10:13:16;102401.94;;;20.75;nan
12054;BME280;5638;50.860;4.698;2022-10-18T10:16:02;102398.31;;;20.51;nan
12054;BME280;5638;50.860;4.698;2022-10-18T10:18:37;102386.00;;;20.23;nan
12054;BME280;5638;50.860;4.698;2022-10-18T10:21:14;102390.25;;;19.98;nan
12054;BME280;5638;50.860;4.698;2022-10-18T10:23:56;102388.88;;;20.44;nan
12054;BME280;5638;50.860;4.698;2022-10-18T10:26:29;102396.13;;;20.92;nan
12054;BME280;5638;50.860;4.698;2022-10-18T10:28:56;102399.38;;;21.51;nan
12054;BME280;5638;50.860;4.698;2022-10-18T10:31:27;102395.56;;;22.07;nan
12054;BME280;5638;50.860;4.698;2022-10-18T10:36:53;102405.22;;;22.31;nan
12054;BME280;5638;50.860;4.698;2022-10-18T10:39:22;102402.72;;;22.28;nan
12054;BME280;5638;50.860;4.698;2022-10-18T10:41:58;102404.31;;;22.76;nan
12054;BME280;5638;50.860;4.698;2022-10-18T10:44:29;102400.41;;;23.07;nan
12054;BME280;5638;50.860;4.698;2022-10-18T10:46:57;102398.06;;;23.21;nan
12054;BME280;5638;50.860;4.698;2022-10-18T10:49:41;102397.47;;;23.15;nan
12054;BME280;5638;50.860;4.698;2022-10-18T10:52:20;102391.06;;;23.20;nan
12054;BME280;5638;50.860;4.698;2022-10-18T10:54:47;102399.59;;;23.68;nan
12054;BME280;5638;50.860;4.698;2022-10-18T10:59:51;102391.06;;;24.36;nan
12054;BME280;5638;50.860;4.698;2022-10-18T11:04:55;102401.81;;;24.33;nan
12054;BME280;5638;50.860;4.698;2022-10-18T11:07:42;102396.91;;;24.62;nan
12054;BME280;5638;50.860;4.698;2022-10-18T11:10:13;102397.28;;;24.91;nan
12054;BME280;5638;50.860;4.698;2022-10-18T11:15:45;102393.72;;;24.92;nan
12054;BME280;5638;50.860;4.698;2022-10-18T11:18:45;102404.25;;;25.11;nan
12054;BME280;5638;50.860;4.698;2022-10-18T11:21:26;102398.88;;;25.29;nan
12054;BME280;5638;50.860;4.698;2022-10-18T11:23:53;102399.31;;;25.55;nan
12054;BME280;5638;50.860;4.698;2022-10-18T11:26:42;102403.63;;;25.73;nan
12054;BME280;5638;50.860;4.698;2022-10-18T11:35:38;102387.44;;;25.79;nan
12054;BME280;5638;50.860;4.698;2022-10-18T11:41:36;102393.47;;;26.46;nan
12054;BME280;5638;50.860;4.698;2022-10-18T11:44:28;102370.00;;;26.54;nan
12054;BME280;5638;50.860;4.698;2022-10-18T11:47:37;102374.34;;;26.86;nan
12054;BME280;5638;50.860;4.698;2022-10-18T11:56:35;102365.81;;;26.80;nan
12054;BME280;5638;50.860;4.698;2022-10-18T11:59:31;102366.78;;;26.94;nan
12054;BME280;5638;50.860;4.698;2022-10-18T12:05:06;102359.19;;;27.18;nan
12054;BME280;5638;50.860;4.698;2022-10-18T12:07:41;102352.53;;;26.80;nan
12054;BME280;5638;50.860;4.698;2022-10-18T12:10:16;102347.50;;;26.76;nan
12054;BME280;5638;50.860;4.698;2022-10-18T12:12:56;102347.88;;;26.54;nan
12054;BME280;5638;50.860;4.698;2022-10-18T12:15:30;102327.22;;;26.13;nan
12054;BME280;5638;50.860;4.698;2022-10-18T12:18:06;102344.47;;;26.52;nan
12054;BME280;5638;50.860;4.698;2022-10-18T12:21:02;102340.28;;;26.78;nan
12054;BME280;5638;50.860;4.698;2022-10-18T12:23:48;102345.81;;;26.89;nan
12054;BME280;5638;50.860;4.698;2022-10-18T12:26:16;102334.88;;;27.10;nan
12054;BME280;5638;50.860;4.698;2022-10-18T12:31:38;102347.22;;;27.11;nan
12054;BME280;5638;50.860;4.698;2022-10-18T12:40:18;102338.50;;;27.51;nan
12054;BME280;5638;50.860;4.698;2022-10-18T12:42:49;102342.00;;;27.52;nan
12054;BME280;5638;50.860;4.698;2022-10-18T12:45:31;102336.66;;;27.09;nan
12054;BME280;5638;50.860;4.698;2022-10-18T12:48:07;102336.13;;;27.18;nan
12054;BME280;5638;50.860;4.698;2022-10-18T12:50:40;102336.78;;;27.36;nan
12054;BME280;5638;50.860;4.698;2022-10-18T12:53:24;102324.63;;;27.32;nan
12054;BME280;5638;50.860;4.698;2022-10-18T12:55:52;102324.75;;;27.30;nan
12054;BME280;5638;50.860;4.698;2022-10-18T12:58:29;102320.56;;;27.26;nan
12054;BME280;5638;50.860;4.698;2022-10-18T13:01:02;102333.75;;;27.42;nan
12054;BME280;5638;50.860;4.698;2022-10-18T13:03:59;102330.97;;;27.29;nan
12054;BME280;5638;50.860;4.698;2022-10-18T13:09:40;102334.53;;;26.24;nan
12054;BME280;5638;50.860;4.698;2022-10-18T13:17:55;102332.31;;;26.48;nan
12054;BME280;5638;50.860;4.698;2022-10-18T13:20:41;102327.75;;;26.50;nan
12054;BME280;5638;50.860;4.698;2022-10-18T13:26:35;102324.16;;;26.81;nan
12054;BME280;5638;50.860;4.698;2022-10-18T13:31:48;102316.59;;;27.03;nan
12054;BME280;5638;50.860;4.698;2022-10-18T13:34:32;102324.56;;;27.03;nan
12054;BME280;5638;50.860;4.698;2022-10-18T13:37:18;102328.75;;;26.93;nan
12054;BME280;5638;50.860;4.698;2022-10-18T13:39:45;102335.47;;;26.99;nan
12054;BME280;5638;50.860;4.698;2022-10-18T13:42:18;102332.25;;;26.94;nan
12054;BME280;5638;50.860;4.698;2022-10-18T13:44:52;102326.88;;;26.79;nan
12054;BME280;5638;50.860;4.698;2022-10-18T13:47:38;102325.31;;;26.91;nan
12054;BME280;5638;50.860;4.698;2022-10-18T13:50:22;102302.13;;;26.79;nan
12054;BME280;5638;50.860;4.698;2022-10-18T13:56:07;102322.59;;;26.93;nan
12054;BME280;5638;50.860;4.698;2022-10-18T13:59:13;102336.50;;;26.82;nan
12054;BME280;5638;50.860;4.698;2022-10-18T14:02:11;102326.06;;;26.49;nan
12054;BME280;5638;50.860;4.698;2022-10-18T14:07:35;102328.38;;;26.55;nan
12054;BME280;5638;50.860;4.698;2022-10-18T14:10:02;102326.47;;;26.57;nan
12054;BME280;5638;50.860;4.698;2022-10-18T14:12:51;102319.44;;;26.56;nan
12054;BME280;5638;50.860;4.698;2022-10-18T14:15:36;102321.09;;;26.43;nan
12054;BME280;5638;50.860;4.698;2022-10-18T14:18:25;102327.13;;;26.61;nan
12054;BME280;5638;50.860;4.698;2022-10-18T14:20:58;102333.31;;;26.61;nan
12054;BME280;5638;50.860;4.698;2022-10-18T14:23:34;102333.47;;;26.58;nan
12054;BME280;5638;50.860;4.698;2022-10-18T14:26:19;102325.63;;;26.25;nan
12054;BME280;5638;50.860;4.698;2022-10-18T14:29:05;102326.84;;;26.19;nan
12054;BME280;5638;50.860;4.698;2022-10-18T14:31:32;102327.63;;;26.21;nan
12054;BME280;5638;50.860;4.698;2022-10-18T14:33:59;102321.63;;;26.18;nan
12054;BME280;5638;50.860;4.698;2022-10-18T14:36:38;102330.53;;;26.01;nan
12054;BME280;5638;50.860;4.698;2022-10-18T14:39:17;102320.34;;;26.09;nan
12054;BME280;5638;50.860;4.698;2022-10-18T14:41:51;102326.69;;;26.06;nan
12054;BME280;5638;50.860;4.698;2022-10-18T14:44:29;102325.72;;;25.92;nan
12054;BME280;5638;50.860;4.698;2022-10-18T14:49:24;102305.00;;;25.51;nan
12054;BME280;5638;50.860;4.698;2022-10-18T14:51:57;102304.25;;;25.31;nan
12054;BME280;5638;50.860;4.698;2022-10-18T14:54:31;102317.94;;;25.40;nan
12054;BME280;5638;50.860;4.698;2022-10-18T14:57:01;102312.84;;;25.19;nan
12054;BME280;5638;50.860;4.698;2022-10-18T14:59:32;102303.94;;;25.53;nan
12054;BME280;5638;50.860;4.698;2022-10-18T15:02:36;102303.59;;;25.77;nan
12054;BME280;5638;50.860;4.698;2022-10-18T15:05:21;102312.28;;;25.79;nan
12054;BME280;5638;50.860;4.698;2022-10-18T15:07:49;102304.38;;;25.46;nan
12054;BME280;5638;50.860;4.698;2022-10-18T15:10:25;102303.00;;;25.39;nan
12054;BME280;5638;50.860;4.698;2022-10-18T15:12:52;102302.41;;;25.16;nan
12054;BME280;5638;50.860;4.698;2022-10-18T15:15:24;102303.19;;;25.18;nan
12054;BME280;5638;50.860;4.698;2022-10-18T15:17:53;102292.28;;;25.07;nan
12054;BME280;5638;50.860;4.698;2022-10-18T15:20:29;102302.09;;;25.05;nan
12054;BME280;5638;50.860;4.698;2022-10-18T15:23:22;102303.34;;;25.15;nan
12054;BME280;5638;50.860;4.698;2022-10-18T15:25:50;102302.66;;;24.94;nan
12054;BME280;5638;50.860;4.698;2022-10-18T15:28:29;102306.53;;;25.22;nan